• Join FlightAware (Why Join?)
  • Login
  • US Flag 
01:37AM EDT


 

Airport Tracker/Info


-or-


 

Live Flight TrackerFlight Track Log ✈ KAP29 ✈ 21-Jul-2013 ✈ KBOS - KSLK

Flight Track Log - Related Links

Times and Time Zones

All times are in EDT time to prevent confusion due to time zone crossing. See the KAP29 flight status page for this flight to view local times or setup timezone preferences in your user account.

Time Position Orientation Groundspeed Altitude Reporting Facility
EDT Latitude Longitude Course Direction KTS MPH feet Rate Location/Type
07:16PM 42.3833 -71.0000 340° North 99 114 400  Level KA90
07:17PM 42.4167 -71.0167 340° North 129 148 1,300 840 Climbing KA90
07:18PM 42.4500 -71.0500 324° Northwest 137 158 2,100 840 Climbing KA90
07:19PM 42.4833 -71.0667 340° North 138 159 3,000 900 Climbing KA90
07:20PM 42.5167 -71.1000 324° Northwest 138 159 4,000 960 Climbing KA90
07:21PM 42.5500 -71.1167 340° North 130 150 5,000 780 Climbing KA90
07:22PM 42.5667 -71.1500 304° West 135 155 5,600 600 Climbing KA90
07:23PM 42.6000 -71.1667 340° North 134 154 6,200 540 Climbing KA90
07:24PM 42.6333 -71.2000 324° Northwest 123 142 6,700 540 Climbing KA90
07:25PM 42.6667 -71.2167 340° North 116 133 7,300 540 Climbing KA90
07:26PM 42.6833 -71.2333 324° Northwest 112 129 7,800 360 Climbing KA90
07:27PM 42.7167 -71.2500 340° North 122 140 8,100 60 Climbing KA90
07:28PM 42.7500 -71.2833 324° Northwest 149 171 8,000 -60 Descending KA90
07:29PM 42.8000 -71.3167 334° Northwest 155 178 8,000  Level KA90
07:30PM 42.8167 -71.3500 304° West 150 173 8,000  Level KA90
07:31PM 42.8500 -71.4000 312° West 150 173 8,000  Level KA90
07:32PM 42.8667 -71.4500 294° West 152 175 8,000  Level KA90
07:33PM 42.8833 -71.5000 294° West 154 177 8,000  Level KA90
07:34PM 42.9000 -71.5500 294° West 151 174 8,000  Level KA90
07:35PM 42.9167 -71.6000 294° West 136 157 8,000  Level KA90
07:36PM 42.9353 -71.6433 300° West 158 182 8,000  Level Boston Center
07:37PM 42.9647 -71.6939 309° West 153 176 8,000  Level Boston Center
07:38PM 42.9881 -71.7333 309° West 148 170 8,000  Level Boston Center
07:39PM 43.0133 -71.7728 311° West 148 170 8,000  Level Boston Center
07:40PM 43.0364 -71.8153 307° West 148 170 8,000  Level Boston Center
07:41PM 43.0658 -71.8633 310° West 148 170 8,000  Level Boston Center
07:42PM 43.0869 -71.9000 308° West 143 165 8,000  Level Boston Center
07:43PM 43.1142 -71.9453 309° West 143 165 8,000  Level Boston Center
07:44PM 43.1372 -71.9847 309° West 143 165 8,000  Level Boston Center
07:45PM 43.1625 -72.0303 307° West 148 170 8,000  Level Boston Center
07:46PM 43.1856 -72.0669 311° West 148 170 8,000  Level Boston Center
07:47PM 43.2128 -72.1153 308° West 148 170 8,000  Level Boston Center
07:48PM 43.2336 -72.1522 308° West 143 165 8,000  Level Boston Center
07:49PM 43.2608 -72.1978 309° West 143 165 8,000  Level Boston Center
07:50PM 43.2797 -72.2319 307° West 143 165 8,000  Level Boston Center
07:51PM 43.3089 -72.2831 308° West 143 165 8,000  Level Boston Center
07:52PM 43.3339 -72.3258 309° West 143 165 8,000  Level Boston Center
07:53PM 43.3569 -72.3658 308° West 143 165 8,000  Level Boston Center
07:54PM 43.3819 -72.4086 309° West 143 165 8,000  Level Boston Center
07:55PM 43.4069 -72.4517 309° West 143 165 8,000  Level Boston Center
07:56PM 43.4300 -72.4944 307° West 143 165 8,000  Level Boston Center
07:57PM 43.4550 -72.5344 311° West 143 165 8,000  Level Boston Center
07:58PM 43.4778 -72.5775 306° West 143 165 8,000  Level Boston Center
07:59PM 43.5028 -72.6206 309° West 143 165 8,000  Level Boston Center
08:00PM 43.5278 -72.6633 309° West 143 165 8,000  Level Boston Center
08:01PM 43.5525 -72.7094 307° West 148 170 8,000  Level Boston Center
08:02PM 43.5775 -72.7525 309° West 148 170 8,000  Level Boston Center
08:03PM 43.6022 -72.7956 308° West 148 170 8,000  Level Boston Center
08:04PM 43.6250 -72.8389 306° West 148 170 8,000  Level Boston Center
08:05PM 43.6519 -72.8819 311° West 148 170 8,000  Level Boston Center
08:06PM 43.6747 -72.9253 306° West 148 170 8,100  Climbing Boston Center
08:07PM 43.6956 -72.9569 312° West 148 170 8,100  Level Boston Center
08:08PM 43.7222 -73.0061 307° West 148 170 8,100  Level Boston Center
08:09PM 43.7450 -73.0494 306° West 148 170 8,100  Level Boston Center
08:10PM 43.7697 -73.0897 310° West 148 170 8,100  Level Boston Center
08:11PM 43.7925 -73.1333 306° West 148 170 8,100  Level Boston Center
08:12PM 43.8172 -73.1767 308° West 148 170 8,100  Level Boston Center
08:13PM 43.8419 -73.2172 310° West 148 170 8,100  Level Boston Center
08:14PM 43.8667 -73.2608 308° West 148 170 8,100  Level Boston Center
08:15PM 43.8914 -73.3044 308° West 148 170 8,100  Level Boston Center
08:16PM 43.9139 -73.3478 306° West 148 170 8,100  Level Boston Center
08:17PM 43.9386 -73.3917 308° West 143 165 8,100  Level Boston Center
08:18PM 43.9633 -73.4353 308° West 143 165 8,100  Level Boston Center
08:19PM 43.9878 -73.4789 308° West 143 165 8,100  Level Boston Center
08:20PM 44.0125 -73.5256 306° West 143 165 8,100  Level Boston Center
08:21PM 44.0350 -73.5719 304° West 143 165 8,100 -120 Level Boston Center
08:22PM 44.0614 -73.6189 308° West 148 170 7,900 -240 Descending Boston Center
08:23PM 44.0881 -73.6656 309° West 148 170 7,700 -300 Descending Boston Center
08:24PM 44.1167 -73.7153 309° West 153 176 7,400 -300 Descending Boston Center
08:25PM 44.1433 -73.7650 307° West 153 176 7,100 -300 Descending Boston Center
08:26PM 44.1719 -73.8178 307° West 158 182 6,800 -360 Descending Boston Center
08:27PM 44.2003 -73.8678 308° West 163 188 6,400 -360 Descending Boston Center
08:28PM 44.2289 -73.9233 306° West 163 188 6,100 -300 Descending Boston Center